sensor_id;sensor_type;location;lat;lon;timestamp;pressure;altitude;pressure_sealevel;temperature;humidity
43161;BME280;40968;52.342;5.528;2023-09-19T00:02:19;100664.66;;;15.58;72.80
43161;BME280;40968;52.342;5.528;2023-09-19T00:04:47;100552.91;;;14.85;72.80
43161;BME280;40968;52.342;5.528;2023-09-19T00:07:14;100627.31;;;15.25;72.92
43161;BME280;40968;52.342;5.528;2023-09-19T00:09:41;100666.56;;;15.48;73.04
43161;BME280;40968;52.342;5.528;2023-09-19T00:12:09;100677.13;;;15.41;73.00
43161;BME280;40968;52.342;5.528;2023-09-19T00:14:38;100662.09;;;15.29;73.34
43161;BME280;40968;52.342;5.528;2023-09-19T00:17:05;100664.00;;;15.18;73.61
43161;BME280;40968;52.342;5.528;2023-09-19T00:19:33;100687.41;;;15.28;73.93
43161;BME280;40968;52.342;5.528;2023-09-19T00:22:01;100686.00;;;15.23;74.23
43161;BME280;40968;52.342;5.528;2023-09-19T00:24:28;100686.28;;;15.20;74.20
43161;BME280;40968;52.342;5.528;2023-09-19T00:26:56;100616.00;;;14.74;74.16
43161;BME280;40968;52.342;5.528;2023-09-19T00:29:24;100629.91;;;14.80;74.20
43161;BME280;40968;52.342;5.528;2023-09-19T00:31:55;100591.19;;;14.51;74.32
43161;BME280;40968;52.342;5.528;2023-09-19T00:34:22;100637.59;;;14.74;74.67
43161;BME280;40968;52.342;5.528;2023-09-19T00:36:48;100692.88;;;15.08;75.00
43161;BME280;40968;52.342;5.528;2023-09-19T00:39:19;100686.78;;;15.06;75.24
43161;BME280;40968;52.342;5.528;2023-09-19T00:41:47;100694.03;;;15.05;75.51
43161;BME280;40968;52.342;5.528;2023-09-19T00:44:14;100596.78;;;14.40;75.49
43161;BME280;40968;52.342;5.528;2023-09-19T00:46:41;100698.16;;;15.00;76.12
43161;BME280;40968;52.342;5.528;2023-09-19T00:49:09;100709.41;;;14.95;76.28
43161;BME280;40968;52.342;5.528;2023-09-19T00:51:36;100700.00;;;14.89;76.35
43161;BME280;40968;52.342;5.528;2023-09-19T00:54:03;100702.03;;;14.87;76.53
43161;BME280;40968;52.342;5.528;2023-09-19T00:56:31;100636.19;;;14.41;76.48
43161;BME280;40968;52.342;5.528;2023-09-19T00:58:58;100654.78;;;14.54;76.67
43161;BME280;40968;52.342;5.528;2023-09-19T01:01:25;100707.16;;;14.81;76.76
43161;BME280;40968;52.342;5.528;2023-09-19T01:03:52;100701.06;;;14.69;76.79
43161;BME280;40968;52.342;5.528;2023-09-19T01:06:19;100720.78;;;14.79;76.78
43161;BME280;40968;52.342;5.528;2023-09-19T01:08:46;100717.38;;;14.77;76.84
43161;BME280;40968;52.342;5.528;2023-09-19T01:11:16;100665.84;;;14.41;76.86
43161;BME280;40968;52.342;5.528;2023-09-19T01:13:57;100665.28;;;14.47;76.60
43161;BME280;40968;52.342;5.528;2023-09-19T01:16:34;100706.00;;;14.73;76.64
43161;BME280;40968;52.342;5.528;2023-09-19T01:19:22;100714.25;;;14.72;76.66
43161;BME280;40968;52.342;5.528;2023-09-19T01:21:57;100716.81;;;14.73;76.51
43161;BME280;40968;52.342;5.528;2023-09-19T01:25:04;100664.84;;;14.42;76.48
43161;BME280;40968;52.342;5.528;2023-09-19T01:28:00;100716.66;;;14.75;76.46
43161;BME280;40968;52.342;5.528;2023-09-19T01:30:35;100711.25;;;14.75;76.18
43161;BME280;40968;52.342;5.528;2023-09-19T01:33:03;100705.19;;;14.73;76.41
43161;BME280;40968;52.342;5.528;2023-09-19T01:35:31;100636.94;;;14.23;76.18
43161;BME280;40968;52.342;5.528;2023-09-19T01:37:59;100675.38;;;14.45;76.03
43161;BME280;40968;52.342;5.528;2023-09-19T01:40:26;100545.78;;;13.70;75.77
43161;BME280;40968;52.342;5.528;2023-09-19T01:42:57;100713.69;;;14.68;75.80
43161;BME280;40968;52.342;5.528;2023-09-19T01:45:33;100712.84;;;14.68;75.73
43161;BME280;40968;52.342;5.528;2023-09-19T01:48:13;100540.09;;;13.63;75.43
43161;BME280;40968;52.342;5.528;2023-09-19T01:50:44;100696.09;;;14.54;75.40
43161;BME280;40968;52.342;5.528;2023-09-19T01:53:15;100725.63;;;14.66;75.21
43161;BME280;40968;52.342;5.528;2023-09-19T01:55:48;100558.81;;;13.65;74.93
43161;BME280;40968;52.342;5.528;2023-09-19T01:58:20;100722.22;;;14.64;75.14
43161;BME280;40968;52.342;5.528;2023-09-19T02:00:49;100716.94;;;14.62;75.05
43161;BME280;40968;52.342;5.528;2023-09-19T02:03:17;100711.66;;;14.60;75.13
43161;BME280;40968;52.342;5.528;2023-09-19T02:05:48;100693.22;;;14.46;75.11
43161;BME280;40968;52.342;5.528;2023-09-19T02:08:16;100718.53;;;14.65;75.30
43161;BME280;40968;52.342;5.528;2023-09-19T02:10:43;100638.22;;;14.19;75.13
43161;BME280;40968;52.342;5.528;2023-09-19T02:13:15;100624.59;;;14.21;74.96
43161;BME280;40968;52.342;5.528;2023-09-19T02:15:42;100651.56;;;14.31;74.95
43161;BME280;40968;52.342;5.528;2023-09-19T02:18:10;100704.31;;;14.63;75.08
43161;BME280;40968;52.342;5.528;2023-09-19T02:20:37;100643.31;;;14.22;75.25
43161;BME280;40968;52.342;5.528;2023-09-19T02:23:04;100668.00;;;14.27;75.54
43161;BME280;40968;52.342;5.528;2023-09-19T02:25:31;100666.84;;;14.30;75.63
43161;BME280;40968;52.342;5.528;2023-09-19T02:27:58;100725.47;;;14.57;75.95
43161;BME280;40968;52.342;5.528;2023-09-19T02:30:28;100725.59;;;14.56;75.97
43161;BME280;40968;52.342;5.528;2023-09-19T02:32:55;100678.63;;;14.19;76.36
43161;BME280;40968;52.342;5.528;2023-09-19T02:35:23;100724.75;;;14.55;76.31
43161;BME280;40968;52.342;5.528;2023-09-19T02:37:51;100686.16;;;14.35;76.24
43161;BME280;40968;52.342;5.528;2023-09-19T02:40:17;100718.50;;;14.55;76.25
43161;BME280;40968;52.342;5.528;2023-09-19T02:42:47;100719.38;;;14.55;76.53
43161;BME280;40968;52.342;5.528;2023-09-19T02:45:16;100725.03;;;14.52;76.66
43161;BME280;40968;52.342;5.528;2023-09-19T02:47:44;100723.31;;;14.51;76.73
43161;BME280;40968;52.342;5.528;2023-09-19T02:50:11;100720.78;;;14.50;76.72
43161;BME280;40968;52.342;5.528;2023-09-19T02:52:41;100733.41;;;14.49;76.26
43161;BME280;40968;52.342;5.528;2023-09-19T02:55:09;100731.56;;;14.50;76.29
43161;BME280;40968;52.342;5.528;2023-09-19T02:57:36;100701.91;;;14.30;75.93
43161;BME280;40968;52.342;5.528;2023-09-19T03:00:06;100601.88;;;13.65;75.94
43161;BME280;40968;52.342;5.528;2023-09-19T03:02:35;100732.44;;;14.50;75.43
43161;BME280;40968;52.342;5.528;2023-09-19T03:05:03;100727.88;;;14.51;75.38
43161;BME280;40968;52.342;5.528;2023-09-19T03:07:30;100637.06;;;13.92;75.14
43161;BME280;40968;52.342;5.528;2023-09-19T03:09:58;100733.41;;;14.49;74.84
43161;BME280;40968;52.342;5.528;2023-09-19T03:12:25;100660.06;;;14.06;74.77
43161;BME280;40968;52.342;5.528;2023-09-19T03:14:51;100731.41;;;14.51;74.63
43161;BME280;40968;52.342;5.528;2023-09-19T03:17:18;100656.06;;;14.10;74.69
43161;BME280;40968;52.342;5.528;2023-09-19T03:19:46;100680.78;;;14.25;74.71
43161;BME280;40968;52.342;5.528;2023-09-19T03:22:14;100727.88;;;14.51;74.65
43161;BME280;40968;52.342;5.528;2023-09-19T03:24:41;100662.88;;;14.15;74.41
43161;BME280;40968;52.342;5.528;2023-09-19T03:27:10;100642.44;;;13.92;74.54
43161;BME280;40968;52.342;5.528;2023-09-19T03:29:40;100688.16;;;14.23;74.72
43161;BME280;40968;52.342;5.528;2023-09-19T03:32:06;100722.06;;;14.36;75.11
43161;BME280;40968;52.342;5.528;2023-09-19T03:34:36;100724.03;;;14.34;75.38
43161;BME280;40968;52.342;5.528;2023-09-19T03:37:02;100687.00;;;14.06;75.74
43161;BME280;40968;52.342;5.528;2023-09-19T03:39:29;100608.97;;;13.66;76.12
43161;BME280;40968;52.342;5.528;2023-09-19T03:41:56;100627.69;;;13.67;76.23
43161;BME280;40968;52.342;5.528;2023-09-19T03:44:24;100694.69;;;14.11;76.33
43161;BME280;40968;52.342;5.528;2023-09-19T03:46:50;100702.06;;;14.19;76.35
43161;BME280;40968;52.342;5.528;2023-09-19T03:49:17;100644.56;;;13.79;76.06
43161;BME280;40968;52.342;5.528;2023-09-19T03:51:44;100592.34;;;13.41;75.93
43161;BME280;40968;52.342;5.528;2023-09-19T03:54:11;100704.28;;;14.04;75.84
43161;BME280;40968;52.342;5.528;2023-09-19T03:56:38;100720.22;;;14.07;75.50
43161;BME280;40968;52.342;5.528;2023-09-19T03:59:05;100726.84;;;14.03;75.68
43161;BME280;40968;52.342;5.528;2023-09-19T04:01:35;100726.97;;;14.01;75.48
43161;BME280;40968;52.342;5.528;2023-09-19T04:04:02;100732.50;;;14.00;75.37
43161;BME280;40968;52.342;5.528;2023-09-19T04:06:33;100737.19;;;13.98;75.28
43161;BME280;40968;52.342;5.528;2023-09-19T04:09:00;100731.94;;;13.96;75.08
43161;BME280;40968;52.342;5.528;2023-09-19T04:11:28;100705.63;;;13.59;75.16
43161;BME280;40968;52.342;5.528;2023-09-19T04:13:55;100680.13;;;13.53;75.01
43161;BME280;40968;52.342;5.528;2023-09-19T04:16:22;100640.88;;;13.30;74.98
43161;BME280;40968;52.342;5.528;2023-09-19T04:18:50;100688.56;;;13.39;74.79
43161;BME280;40968;52.342;5.528;2023-09-19T04:21:16;100775.47;;;13.91;74.79
43161;BME280;40968;52.342;5.528;2023-09-19T04:23:44;100729.75;;;13.70;74.59
43161;BME280;40968;52.342;5.528;2023-09-19T04:26:11;100672.91;;;13.33;74.45
43161;BME280;40968;52.342;5.528;2023-09-19T04:28:38;100708.00;;;13.52;74.40
43161;BME280;40968;52.342;5.528;2023-09-19T04:31:05;100729.44;;;13.64;74.23
43161;BME280;40968;52.342;5.528;2023-09-19T04:33:33;100774.03;;;13.87;74.20
43161;BME280;40968;52.342;5.528;2023-09-19T04:36:01;100776.28;;;13.82;74.30
43161;BME280;40968;52.342;5.528;2023-09-19T04:38:32;100776.56;;;13.79;74.03
43161;BME280;40968;52.342;5.528;2023-09-19T04:40:59;100783.94;;;13.77;74.16
43161;BME280;40968;52.342;5.528;2023-09-19T04:43:25;100785.91;;;13.75;73.91
43161;BME280;40968;52.342;5.528;2023-09-19T04:45:53;100530.78;;;12.14;73.97
43161;BME280;40968;52.342;5.528;2023-09-19T04:48:21;100779.91;;;13.71;74.03
43161;BME280;40968;52.342;5.528;2023-09-19T04:50:49;100753.06;;;13.50;73.94
43161;BME280;40968;52.342;5.528;2023-09-19T04:53:17;100777.50;;;13.68;73.86
43161;BME280;40968;52.342;5.528;2023-09-19T04:55:49;100758.59;;;13.49;73.84
43161;BME280;40968;52.342;5.528;2023-09-19T04:58:16;100745.50;;;13.44;73.97
43161;BME280;40968;52.342;5.528;2023-09-19T05:00:43;100630.41;;;12.65;73.65
43161;BME280;40968;52.342;5.528;2023-09-19T05:03:10;100667.06;;;12.87;73.67
43161;BME280;40968;52.342;5.528;2023-09-19T05:05:36;100786.69;;;13.56;73.83
43161;BME280;40968;52.342;5.528;2023-09-19T05:08:04;100785.22;;;13.52;73.73
43161;BME280;40968;52.342;5.528;2023-09-19T05:10:32;100633.38;;;12.62;73.68
43161;BME280;40968;52.342;5.528;2023-09-19T05:13:00;100500.31;;;11.83;73.75
43161;BME280;40968;52.342;5.528;2023-09-19T05:15:27;100632.03;;;12.56;73.98
43161;BME280;40968;52.342;5.528;2023-09-19T05:17:53;100725.78;;;13.13;74.11
43161;BME280;40968;52.342;5.528;2023-09-19T05:20:21;100799.13;;;13.57;73.93
43161;BME280;40968;52.342;5.528;2023-09-19T05:23:00;100799.03;;;13.58;74.02
43161;BME280;40968;52.342;5.528;2023-09-19T05:25:28;100792.63;;;13.59;73.90
43161;BME280;40968;52.342;5.528;2023-09-19T05:27:57;100738.63;;;13.30;73.79
43161;BME280;40968;52.342;5.528;2023-09-19T05:30:26;100722.41;;;13.20;73.97
43161;BME280;40968;52.342;5.528;2023-09-19T05:32:54;100734.66;;;13.24;74.10
43161;BME280;40968;52.342;5.528;2023-09-19T05:35:21;100760.22;;;13.40;74.01
43161;BME280;40968;52.342;5.528;2023-09-19T05:37:48;100736.34;;;13.25;73.98
43161;BME280;40968;52.342;5.528;2023-09-19T05:40:16;100775.91;;;13.56;73.91
43161;BME280;40968;52.342;5.528;2023-09-19T05:42:43;100681.19;;;12.89;73.94
43161;BME280;40968;52.342;5.528;2023-09-19T05:45:12;100801.53;;;13.50;74.03
43161;BME280;40968;52.342;5.528;2023-09-19T05:47:39;100674.25;;;12.65;73.75
43161;BME280;40968;52.342;5.528;2023-09-19T05:50:13;100727.69;;;13.01;74.02
43161;BME280;40968;52.342;5.528;2023-09-19T05:52:42;100713.75;;;12.86;74.00
43161;BME280;40968;52.342;5.528;2023-09-19T05:55:09;100801.34;;;13.42;74.16
43161;BME280;40968;52.342;5.528;2023-09-19T05:57:36;100782.19;;;13.14;74.42
43161;BME280;40968;52.342;5.528;2023-09-19T06:00:05;100799.78;;;13.39;74.36
43161;BME280;40968;52.342;5.528;2023-09-19T06:02:35;100689.28;;;12.68;74.55
43161;BME280;40968;52.342;5.528;2023-09-19T06:05:03;100812.38;;;13.39;74.69
43161;BME280;40968;52.342;5.528;2023-09-19T06:07:31;100823.38;;;13.36;74.86
43161;BME280;40968;52.342;5.528;2023-09-19T06:10:02;100782.19;;;13.14;74.94
43161;BME280;40968;52.342;5.528;2023-09-19T06:12:30;100819.97;;;13.34;75.04
43161;BME280;40968;52.342;5.528;2023-09-19T06:14:58;100703.28;;;12.62;75.13
43161;BME280;40968;52.342;5.528;2023-09-19T06:17:25;100827.03;;;13.35;75.26
43161;BME280;40968;52.342;5.528;2023-09-19T06:19:54;100624.34;;;12.09;75.24
43161;BME280;40968;52.342;5.528;2023-09-19T06:22:21;100741.03;;;12.81;75.48
43161;BME280;40968;52.342;5.528;2023-09-19T06:24:47;100794.91;;;13.12;75.53
43161;BME280;40968;52.342;5.528;2023-09-19T06:27:14;100783.16;;;13.13;75.42
43161;BME280;40968;52.342;5.528;2023-09-19T06:29:41;100820.88;;;13.44;75.60
43161;BME280;40968;52.342;5.528;2023-09-19T06:32:07;100777.16;;;13.31;75.62
43161;BME280;40968;52.342;5.528;2023-09-19T06:34:35;100812.88;;;13.54;75.71
43161;BME280;40968;52.342;5.528;2023-09-19T06:37:04;100776.25;;;13.20;75.64
43161;BME280;40968;52.342;5.528;2023-09-19T06:39:31;100803.16;;;13.63;75.61
43161;BME280;40968;52.342;5.528;2023-09-19T06:41:58;100682.53;;;12.94;75.64
43161;BME280;40968;52.342;5.528;2023-09-19T06:44:27;100801.22;;;13.74;75.64
43161;BME280;40968;52.342;5.528;2023-09-19T06:46:55;100800.78;;;13.79;75.53
43161;BME280;40968;52.342;5.528;2023-09-19T06:49:21;100689.97;;;13.12;75.45
43161;BME280;40968;52.342;5.528;2023-09-19T06:51:48;100807.06;;;13.89;75.71
43161;BME280;40968;52.342;5.528;2023-09-19T06:54:16;100640.53;;;12.82;75.43
43161;BME280;40968;52.342;5.528;2023-09-19T06:56:43;100828.09;;;13.96;75.57
43161;BME280;40968;52.342;5.528;2023-09-19T06:59:10;100816.31;;;13.97;75.50
43161;BME280;40968;52.342;5.528;2023-09-19T07:01:40;100764.59;;;13.62;75.71
43161;BME280;40968;52.342;5.528;2023-09-19T07:04:07;100823.16;;;14.01;75.70
43161;BME280;40968;52.342;5.528;2023-09-19T07:06:33;100536.28;;;12.34;75.74
43161;BME280;40968;52.342;5.528;2023-09-19T07:09:01;100818.06;;;14.07;75.97
43161;BME280;40968;52.342;5.528;2023-09-19T07:11:29;100777.88;;;13.85;75.76
43161;BME280;40968;52.342;5.528;2023-09-19T07:13:56;100831.81;;;14.14;75.93
43161;BME280;40968;52.342;5.528;2023-09-19T07:16:23;100833.41;;;14.17;76.08
43161;BME280;40968;52.342;5.528;2023-09-19T07:18:55;100820.50;;;14.20;75.74
43161;BME280;40968;52.342;5.528;2023-09-19T07:21:22;100704.72;;;13.39;75.49
43161;BME280;40968;52.342;5.528;2023-09-19T07:23:49;100850.31;;;14.29;75.91
43161;BME280;40968;52.342;5.528;2023-09-19T07:26:16;100816.34;;;14.06;75.72
43161;BME280;40968;52.342;5.528;2023-09-19T07:28:44;100854.16;;;14.36;75.87
43161;BME280;40968;52.342;5.528;2023-09-19T07:31:11;100832.84;;;14.23;75.77
43161;BME280;40968;52.342;5.528;2023-09-19T07:33:39;100851.63;;;14.44;75.89
43161;BME280;40968;52.342;5.528;2023-09-19T07:36:10;100840.69;;;14.46;75.69
43161;BME280;40968;52.342;5.528;2023-09-19T07:38:39;100844.81;;;14.50;75.88
43161;BME280;40968;52.342;5.528;2023-09-19T07:41:06;100671.84;;;13.45;75.74
43161;BME280;40968;52.342;5.528;2023-09-19T07:43:34;100843.41;;;14.55;75.73
43161;BME280;40968;52.342;5.528;2023-09-19T07:46:04;100845.53;;;14.62;75.77
43161;BME280;40968;52.342;5.528;2023-09-19T07:48:32;100844.28;;;14.66;75.61
43161;BME280;40968;52.342;5.528;2023-09-19T07:51:02;100806.78;;;14.43;75.46
43161;BME280;40968;52.342;5.528;2023-09-19T07:53:28;100830.19;;;14.52;75.54
43161;BME280;40968;52.342;5.528;2023-09-19T07:56:01;100848.84;;;14.75;75.41
43161;BME280;40968;52.342;5.528;2023-09-19T07:58:29;100823.97;;;14.62;75.26
43161;BME280;40968;52.342;5.528;2023-09-19T08:00:56;100853.13;;;14.87;75.29
43161;BME280;40968;52.342;5.528;2023-09-19T08:03:24;100854.53;;;14.91;75.25
43161;BME280;40968;52.342;5.528;2023-09-19T08:05:51;100820.47;;;14.81;75.02
43161;BME280;40968;52.342;5.528;2023-09-19T08:08:17;100854.97;;;14.97;74.69
43161;BME280;40968;52.342;5.528;2023-09-19T08:10:45;100844.28;;;15.05;74.12
43161;BME280;40968;52.342;5.528;2023-09-19T08:13:14;100777.88;;;14.65;74.07
43161;BME280;40968;52.342;5.528;2023-09-19T08:15:43;100787.38;;;14.69;73.81
43161;BME280;40968;52.342;5.528;2023-09-19T08:18:10;100863.63;;;15.20;74.05
43161;BME280;40968;52.342;5.528;2023-09-19T08:20:38;100864.88;;;15.25;73.80
43161;BME280;40968;52.342;5.528;2023-09-19T08:23:07;100860.16;;;15.37;73.63
43161;BME280;40968;52.342;5.528;2023-09-19T08:25:34;100856.75;;;15.45;73.32
43161;BME280;40968;52.342;5.528;2023-09-19T08:28:01;100855.88;;;15.54;73.74
43161;BME280;40968;52.342;5.528;2023-09-19T08:30:29;100859.00;;;15.59;73.35
43161;BME280;40968;52.342;5.528;2023-09-19T08:32:57;100858.94;;;15.69;73.07
43161;BME280;40968;52.342;5.528;2023-09-19T08:35:24;100781.44;;;15.32;72.49
43161;BME280;40968;52.342;5.528;2023-09-19T08:37:52;100842.00;;;15.77;72.21
43161;BME280;40968;52.342;5.528;2023-09-19T08:40:20;100836.59;;;15.77;72.42
43161;BME280;40968;52.342;5.528;2023-09-19T08:42:48;100840.16;;;15.87;72.02
43161;BME280;40968;52.342;5.528;2023-09-19T08:45:15;100769.78;;;15.41;71.97
43161;BME280;40968;52.342;5.528;2023-09-19T08:47:46;100845.81;;;15.94;71.54
43161;BME280;40968;52.342;5.528;2023-09-19T08:50:19;100845.53;;;15.97;71.35
43161;BME280;40968;52.342;5.528;2023-09-19T08:52:47;100834.97;;;16.04;71.35
43161;BME280;40968;52.342;5.528;2023-09-19T08:55:18;100785.75;;;15.63;70.80
43161;BME280;40968;52.342;5.528;2023-09-19T08:57:49;100779.31;;;15.73;70.50
43161;BME280;40968;52.342;5.528;2023-09-19T09:00:16;100822.34;;;15.95;70.59
43161;BME280;40968;52.342;5.528;2023-09-19T09:02:46;100854.22;;;16.19;70.54
43161;BME280;40968;52.342;5.528;2023-09-19T09:05:14;100865.28;;;16.25;70.29
43161;BME280;40968;52.342;5.528;2023-09-19T09:07:42;100847.06;;;16.28;69.01
43161;BME280;40968;52.342;5.528;2023-09-19T09:10:10;100780.09;;;15.94;69.38
43161;BME280;40968;52.342;5.528;2023-09-19T09:12:38;100697.66;;;15.52;69.11
43161;BME280;40968;52.342;5.528;2023-09-19T09:15:07;100831.63;;;16.38;68.91
43161;BME280;40968;52.342;5.528;2023-09-19T09:17:37;100643.59;;;15.34;68.38
43161;BME280;40968;52.342;5.528;2023-09-19T09:20:04;100797.88;;;16.42;68.26
43161;BME280;40968;52.342;5.528;2023-09-19T09:22:33;100679.50;;;15.72;67.26
43161;BME280;40968;52.342;5.528;2023-09-19T09:25:01;100853.00;;;16.77;66.85
43161;BME280;40968;52.342;5.528;2023-09-19T09:27:29;100843.13;;;16.68;66.57
43161;BME280;40968;52.342;5.528;2023-09-19T09:29:59;100799.75;;;16.41;66.38
43161;BME280;40968;52.342;5.528;2023-09-19T09:32:27;100817.88;;;16.67;66.88
43161;BME280;40968;52.342;5.528;2023-09-19T09:34:56;100807.47;;;16.72;66.01
43161;BME280;40968;52.342;5.528;2023-09-19T09:37:24;100853.72;;;16.97;66.17
43161;BME280;40968;52.342;5.528;2023-09-19T09:39:53;100808.31;;;16.73;65.16
43161;BME280;40968;52.342;5.528;2023-09-19T09:42:32;100775.69;;;16.56;65.50
43161;BME280;40968;52.342;5.528;2023-09-19T09:45:15;100836.88;;;17.03;65.61
43161;BME280;40968;52.342;5.528;2023-09-19T09:47:44;100808.78;;;16.86;64.50
43161;BME280;40968;52.342;5.528;2023-09-19T09:50:27;100805.84;;;16.80;64.72
43161;BME280;40968;52.342;5.528;2023-09-19T09:53:07;100675.63;;;16.02;64.98
43161;BME280;40968;52.342;5.528;2023-09-19T09:56:03;100726.09;;;16.30;64.72
43161;BME280;40968;52.342;5.528;2023-09-19T09:58:32;100808.31;;;16.73;64.52
43161;BME280;40968;52.342;5.528;2023-09-19T10:01:02;100820.53;;;16.77;64.96
43161;BME280;40968;52.342;5.528;2023-09-19T10:03:35;100831.22;;;16.97;65.17
43161;BME280;40968;52.342;5.528;2023-09-19T10:06:10;100767.88;;;16.71;65.57
43161;BME280;40968;52.342;5.528;2023-09-19T10:09:01;100827.97;;;17.11;64.93
43161;BME280;40968;52.342;5.528;2023-09-19T10:11:42;100787.78;;;16.88;64.85
43161;BME280;40968;52.342;5.528;2023-09-19T10:14:10;100647.91;;;16.18;64.89
43161;BME280;40968;52.342;5.528;2023-09-19T10:16:40;100813.38;;;17.12;65.05
43161;BME280;40968;52.342;5.528;2023-09-19T10:19:10;100826.16;;;17.20;65.21
43161;BME280;40968;52.342;5.528;2023-09-19T10:21:37;100793.94;;;17.09;64.96
43161;BME280;40968;52.342;5.528;2023-09-19T10:24:07;100670.81;;;16.32;64.80
43161;BME280;40968;52.342;5.528;2023-09-19T10:26:36;100734.69;;;16.87;65.50
43161;BME280;40968;52.342;5.528;2023-09-19T10:29:06;100745.88;;;17.11;65.07
43161;BME280;40968;52.342;5.528;2023-09-19T10:31:36;100752.56;;;17.24;65.12
43161;BME280;40968;52.342;5.528;2023-09-19T10:34:08;100794.28;;;17.66;64.38
43161;BME280;40968;52.342;5.528;2023-09-19T10:36:36;100724.06;;;17.47;63.20
43161;BME280;40968;52.342;5.528;2023-09-19T10:39:05;100738.56;;;17.72;63.21
43161;BME280;40968;52.342;5.528;2023-09-19T10:41:34;100732.88;;;17.92;62.92
43161;BME280;40968;52.342;5.528;2023-09-19T10:44:03;100776.09;;;18.44;61.65
43161;BME280;40968;52.342;5.528;2023-09-19T10:46:31;100761.19;;;18.65;61.87
43161;BME280;40968;52.342;5.528;2023-09-19T10:48:59;100752.34;;;18.54;60.13
43161;BME280;40968;52.342;5.528;2023-09-19T10:51:30;100739.13;;;18.51;60.54
43161;BME280;40968;52.342;5.528;2023-09-19T10:54:02;100624.47;;;18.00;60.20
43161;BME280;40968;52.342;5.528;2023-09-19T10:56:35;100692.50;;;18.48;59.96
43161;BME280;40968;52.342;5.528;2023-09-19T10:59:07;100771.03;;;19.07;58.08
43161;BME280;40968;52.342;5.528;2023-09-19T11:01:45;100736.06;;;18.87;58.25
43161;BME280;40968;52.342;5.528;2023-09-19T11:04:24;100807.53;;;19.04;57.71
43161;BME280;40968;52.342;5.528;2023-09-19T11:07:03;100669.44;;;18.44;58.54
43161;BME280;40968;52.342;5.528;2023-09-19T11:09:44;100671.63;;;18.56;58.95
43161;BME280;40968;52.342;5.528;2023-09-19T11:12:12;100711.63;;;18.79;59.15
43161;BME280;40968;52.342;5.528;2023-09-19T11:14:40;100701.94;;;19.10;58.36
43161;BME280;40968;52.342;5.528;2023-09-19T11:17:40;100715.53;;;19.10;57.96
43161;BME280;40968;52.342;5.528;2023-09-19T11:20:25;100734.88;;;19.07;57.61
43161;BME280;40968;52.342;5.528;2023-09-19T11:23:21;100693.00;;;18.76;57.85
43161;BME280;40968;52.342;5.528;2023-09-19T11:25:56;100740.34;;;18.98;58.72
43161;BME280;40968;52.342;5.528;2023-09-19T11:28:33;100716.56;;;18.84;58.82
43161;BME280;40968;52.342;5.528;2023-09-19T11:31:41;100747.78;;;19.13;58.95
43161;BME280;40968;52.342;5.528;2023-09-19T11:34:38;100743.88;;;19.07;59.19
43161;BME280;40968;52.342;5.528;2023-09-19T11:40:46;100699.44;;;18.67;59.08
43161;BME280;40968;52.342;5.528;2023-09-19T11:43:31;100707.75;;;18.82;59.37
43161;BME280;40968;52.342;5.528;2023-09-19T11:46:04;100668.72;;;18.66;58.75
43161;BME280;40968;52.342;5.528;2023-09-19T11:48:32;100683.66;;;19.03;58.03
43161;BME280;40968;52.342;5.528;2023-09-19T11:50:58;100603.63;;;18.50;57.86
43161;BME280;40968;52.342;5.528;2023-09-19T11:53:33;100745.31;;;19.51;57.98
43161;BME280;40968;52.342;5.528;2023-09-19T11:56:05;100701.91;;;19.26;57.80
43161;BME280;40968;52.342;5.528;2023-09-19T11:58:36;100738.31;;;19.57;57.73
43161;BME280;40968;52.342;5.528;2023-09-19T12:01:05;100575.06;;;18.70;57.75
43161;BME280;40968;52.342;5.528;2023-09-19T12:03:34;100715.47;;;19.82;56.96
43161;BME280;40968;52.342;5.528;2023-09-19T12:06:10;100650.47;;;19.25;57.01
43161;BME280;40968;52.342;5.528;2023-09-19T12:08:40;100675.22;;;19.38;56.53
43161;BME280;40968;52.342;5.528;2023-09-19T12:11:12;100711.13;;;19.57;56.08
43161;BME280;40968;52.342;5.528;2023-09-19T12:13:41;100695.06;;;19.38;56.27
43161;BME280;40968;52.342;5.528;2023-09-19T12:16:12;100716.63;;;19.40;57.07
43161;BME280;40968;52.342;5.528;2023-09-19T12:18:40;100736.66;;;19.47;56.85
43161;BME280;40968;52.342;5.528;2023-09-19T12:21:21;100733.78;;;19.41;57.25
43161;BME280;40968;52.342;5.528;2023-09-19T12:24:00;100697.72;;;19.15;56.61
43161;BME280;40968;52.342;5.528;2023-09-19T12:26:38;100721.22;;;19.39;57.77
43161;BME280;40968;52.342;5.528;2023-09-19T12:29:11;100703.97;;;19.16;57.76
43161;BME280;40968;52.342;5.528;2023-09-19T12:31:47;100654.44;;;18.81;56.96
43161;BME280;40968;52.342;5.528;2023-09-19T12:34:16;100749.63;;;19.20;57.30
43161;BME280;40968;52.342;5.528;2023-09-19T12:36:45;100754.75;;;19.07;57.47
43161;BME280;40968;52.342;5.528;2023-09-19T12:39:22;100683.16;;;18.67;57.52
43161;BME280;40968;52.342;5.528;2023-09-19T12:41:51;100564.13;;;17.81;58.10
43161;BME280;40968;52.342;5.528;2023-09-19T12:44:18;100727.78;;;18.89;58.35
43161;BME280;40968;52.342;5.528;2023-09-19T12:46:45;100729.63;;;18.88;58.66
43161;BME280;40968;52.342;5.528;2023-09-19T12:49:19;100692.47;;;18.72;58.81
43161;BME280;40968;52.342;5.528;2023-09-19T12:51:46;100681.13;;;18.52;58.85
43161;BME280;40968;52.342;5.528;2023-09-19T12:54:13;100737.09;;;18.86;59.04
43161;BME280;40968;52.342;5.528;2023-09-19T12:56:42;100715.53;;;18.85;58.48
43161;BME280;40968;52.342;5.528;2023-09-19T12:59:12;100704.53;;;18.86;58.50
43161;BME280;40968;52.342;5.528;2023-09-19T13:01:40;100679.06;;;19.04;58.14
43161;BME280;40968;52.342;5.528;2023-09-19T13:04:15;100704.38;;;19.52;57.73
43161;BME280;40968;52.342;5.528;2023-09-19T13:06:43;100696.81;;;19.71;57.01
43161;BME280;40968;52.342;5.528;2023-09-19T13:09:11;100723.19;;;20.02;56.08